sensor_id;sensor_type;location;lat;lon;timestamp;temperature;humidity
35305;DHT22;26433;48.034;-1.764;2023-12-20T00:04:48;9.50;99.90
35305;DHT22;26433;48.034;-1.764;2023-12-20T00:09:52;9.50;99.90
35305;DHT22;26433;48.034;-1.764;2023-12-20T00:14:55;9.30;99.90
35305;DHT22;26433;48.034;-1.764;2023-12-20T00:20:00;9.20;99.90
35305;DHT22;26433;48.034;-1.764;2023-12-20T00:25:04;9.20;99.90
35305;DHT22;26433;48.034;-1.764;2023-12-20T00:30:09;9.10;99.90
35305;DHT22;26433;48.034;-1.764;2023-12-20T00:35:15;9.00;99.90
35305;DHT22;26433;48.034;-1.764;2023-12-20T00:40:18;8.80;99.90
35305;DHT22;26433;48.034;-1.764;2023-12-20T00:45:23;8.60;99.90
35305;DHT22;26433;48.034;-1.764;2023-12-20T00:50:27;8.60;99.90
35305;DHT22;26433;48.034;-1.764;2023-12-20T00:55:31;8.50;99.90
35305;DHT22;26433;48.034;-1.764;2023-12-20T01:00:35;8.40;99.90
35305;DHT22;26433;48.034;-1.764;2023-12-20T01:05:40;8.30;99.90
35305;DHT22;26433;48.034;-1.764;2023-12-20T01:10:44;8.20;99.90
35305;DHT22;26433;48.034;-1.764;2023-12-20T01:15:49;8.10;99.90
35305;DHT22;26433;48.034;-1.764;2023-12-20T01:20:54;8.10;99.90
35305;DHT22;26433;48.034;-1.764;2023-12-20T01:25:58;8.10;99.90
35305;DHT22;26433;48.034;-1.764;2023-12-20T01:31:01;8.00;99.90
35305;DHT22;26433;48.034;-1.764;2023-12-20T01:36:07;8.10;99.90
35305;DHT22;26433;48.034;-1.764;2023-12-20T01:41:11;8.20;99.90
35305;DHT22;26433;48.034;-1.764;2023-12-20T01:46:16;8.30;99.90
35305;DHT22;26433;48.034;-1.764;2023-12-20T01:51:21;8.40;99.90
35305;DHT22;26433;48.034;-1.764;2023-12-20T01:56:26;8.50;99.90
35305;DHT22;26433;48.034;-1.764;2023-12-20T02:01:30;8.70;99.90
35305;DHT22;26433;48.034;-1.764;2023-12-20T02:06:35;8.80;99.90
35305;DHT22;26433;48.034;-1.764;2023-12-20T02:11:40;8.90;99.90
35305;DHT22;26433;48.034;-1.764;2023-12-20T02:16:44;8.90;99.90
35305;DHT22;26433;48.034;-1.764;2023-12-20T02:21:49;8.90;99.90
35305;DHT22;26433;48.034;-1.764;2023-12-20T02:26:53;8.90;99.90
35305;DHT22;26433;48.034;-1.764;2023-12-20T02:31:56;8.90;99.90
35305;DHT22;26433;48.034;-1.764;2023-12-20T02:37:01;8.80;99.90
35305;DHT22;26433;48.034;-1.764;2023-12-20T02:42:04;8.70;99.90
35305;DHT22;26433;48.034;-1.764;2023-12-20T02:47:08;8.60;99.90
35305;DHT22;26433;48.034;-1.764;2023-12-20T02:52:13;8.60;99.90
35305;DHT22;26433;48.034;-1.764;2023-12-20T02:57:16;8.60;99.90
35305;DHT22;26433;48.034;-1.764;2023-12-20T03:02:20;8.60;99.90
35305;DHT22;26433;48.034;-1.764;2023-12-20T03:07:25;8.60;99.90
35305;DHT22;26433;48.034;-1.764;2023-12-20T03:12:28;8.60;99.90
35305;DHT22;26433;48.034;-1.764;2023-12-20T03:17:32;8.70;99.90
35305;DHT22;26433;48.034;-1.764;2023-12-20T03:22:37;8.80;99.90
35305;DHT22;26433;48.034;-1.764;2023-12-20T03:27:40;8.90;99.90
35305;DHT22;26433;48.034;-1.764;2023-12-20T03:32:44;8.90;99.90
35305;DHT22;26433;48.034;-1.764;2023-12-20T03:37:49;9.00;99.90
35305;DHT22;26433;48.034;-1.764;2023-12-20T03:42:53;9.00;99.90
35305;DHT22;26433;48.034;-1.764;2023-12-20T03:47:56;9.00;99.90
35305;DHT22;26433;48.034;-1.764;2023-12-20T03:53:01;9.10;99.90
35305;DHT22;26433;48.034;-1.764;2023-12-20T03:58:06;9.10;99.90
35305;DHT22;26433;48.034;-1.764;2023-12-20T04:03:09;9.00;99.90
35305;DHT22;26433;48.034;-1.764;2023-12-20T04:08:16;9.00;99.90
35305;DHT22;26433;48.034;-1.764;2023-12-20T04:13:19;9.00;99.90
35305;DHT22;26433;48.034;-1.764;2023-12-20T04:18:23;9.00;99.90
35305;DHT22;26433;48.034;-1.764;2023-12-20T04:23:28;8.90;99.90
35305;DHT22;26433;48.034;-1.764;2023-12-20T04:28:31;8.90;99.90
35305;DHT22;26433;48.034;-1.764;2023-12-20T04:33:35;9.00;99.90
35305;DHT22;26433;48.034;-1.764;2023-12-20T04:38:40;9.00;99.90
35305;DHT22;26433;48.034;-1.764;2023-12-20T04:43:43;9.00;99.90
35305;DHT22;26433;48.034;-1.764;2023-12-20T04:48:47;9.00;99.90
35305;DHT22;26433;48.034;-1.764;2023-12-20T04:53:52;9.00;99.90
35305;DHT22;26433;48.034;-1.764;2023-12-20T04:58:55;8.90;99.90
35305;DHT22;26433;48.034;-1.764;2023-12-20T05:03:59;9.00;99.90
35305;DHT22;26433;48.034;-1.764;2023-12-20T05:09:04;9.00;99.90
35305;DHT22;26433;48.034;-1.764;2023-12-20T05:14:08;9.00;99.90
35305;DHT22;26433;48.034;-1.764;2023-12-20T05:19:12;9.00;99.90
35305;DHT22;26433;48.034;-1.764;2023-12-20T05:24:17;9.00;99.90
35305;DHT22;26433;48.034;-1.764;2023-12-20T05:29:21;9.10;99.90
35305;DHT22;26433;48.034;-1.764;2023-12-20T05:34:24;9.00;99.90
35305;DHT22;26433;48.034;-1.764;2023-12-20T05:39:29;9.00;99.90
35305;DHT22;26433;48.034;-1.764;2023-12-20T05:44:33;8.90;99.90
35305;DHT22;26433;48.034;-1.764;2023-12-20T05:49:37;8.80;99.90
35305;DHT22;26433;48.034;-1.764;2023-12-20T05:54:42;8.80;99.90
35305;DHT22;26433;48.034;-1.764;2023-12-20T05:59:46;8.70;99.90
35305;DHT22;26433;48.034;-1.764;2023-12-20T06:04:49;8.70;99.90
35305;DHT22;26433;48.034;-1.764;2023-12-20T06:09:55;8.60;99.90
35305;DHT22;26433;48.034;-1.764;2023-12-20T06:14:58;8.60;99.90
35305;DHT22;26433;48.034;-1.764;2023-12-20T06:20:02;8.60;99.90
35305;DHT22;26433;48.034;-1.764;2023-12-20T06:25:11;8.60;99.90
35305;DHT22;26433;48.034;-1.764;2023-12-20T06:30:16;8.70;99.90
35305;DHT22;26433;48.034;-1.764;2023-12-20T06:35:20;8.80;99.90
35305;DHT22;26433;48.034;-1.764;2023-12-20T06:40:25;8.90;99.90
35305;DHT22;26433;48.034;-1.764;2023-12-20T06:45:28;8.90;99.90
35305;DHT22;26433;48.034;-1.764;2023-12-20T06:50:32;9.00;99.90
35305;DHT22;26433;48.034;-1.764;2023-12-20T06:55:37;8.90;99.90
35305;DHT22;26433;48.034;-1.764;2023-12-20T07:00:41;8.90;99.90
35305;DHT22;26433;48.034;-1.764;2023-12-20T07:05:44;8.80;99.90
35305;DHT22;26433;48.034;-1.764;2023-12-20T07:10:49;8.80;99.90
35305;DHT22;26433;48.034;-1.764;2023-12-20T07:15:53;8.90;99.90
35305;DHT22;26433;48.034;-1.764;2023-12-20T07:20:56;8.80;99.90
35305;DHT22;26433;48.034;-1.764;2023-12-20T07:26:01;8.90;99.90
35305;DHT22;26433;48.034;-1.764;2023-12-20T07:31:06;8.90;99.90
35305;DHT22;26433;48.034;-1.764;2023-12-20T07:36:10;8.90;99.90
35305;DHT22;26433;48.034;-1.764;2023-12-20T07:41:15;8.90;99.90
35305;DHT22;26433;48.034;-1.764;2023-12-20T07:46:21;8.90;99.90
35305;DHT22;26433;48.034;-1.764;2023-12-20T07:51:25;8.90;99.90
35305;DHT22;26433;48.034;-1.764;2023-12-20T07:56:30;8.90;99.90
35305;DHT22;26433;48.034;-1.764;2023-12-20T08:01:34;8.90;99.90
35305;DHT22;26433;48.034;-1.764;2023-12-20T08:06:38;9.00;99.90
35305;DHT22;26433;48.034;-1.764;2023-12-20T08:11:46;9.00;99.90
35305;DHT22;26433;48.034;-1.764;2023-12-20T08:16:49;9.00;99.90
35305;DHT22;26433;48.034;-1.764;2023-12-20T08:21:53;9.00;99.90
35305;DHT22;26433;48.034;-1.764;2023-12-20T08:26:58;9.00;99.90
35305;DHT22;26433;48.034;-1.764;2023-12-20T08:32:01;9.00;99.90
35305;DHT22;26433;48.034;-1.764;2023-12-20T08:37:05;9.00;99.90
35305;DHT22;26433;48.034;-1.764;2023-12-20T08:42:10;9.10;99.90
35305;DHT22;26433;48.034;-1.764;2023-12-20T08:47:13;9.20;99.90
35305;DHT22;26433;48.034;-1.764;2023-12-20T08:52:18;9.30;99.90
35305;DHT22;26433;48.034;-1.764;2023-12-20T08:57:23;9.30;99.90
35305;DHT22;26433;48.034;-1.764;2023-12-20T09:02:27;9.30;99.90
35305;DHT22;26433;48.034;-1.764;2023-12-20T09:07:31;9.40;99.90
35305;DHT22;26433;48.034;-1.764;2023-12-20T09:12:36;9.40;99.90
35305;DHT22;26433;48.034;-1.764;2023-12-20T09:17:42;9.50;99.90
35305;DHT22;26433;48.034;-1.764;2023-12-20T09:22:46;9.70;99.90
35305;DHT22;26433;48.034;-1.764;2023-12-20T09:27:51;9.80;99.90
35305;DHT22;26433;48.034;-1.764;2023-12-20T09:32:55;10.00;99.90
35305;DHT22;26433;48.034;-1.764;2023-12-20T09:37:59;10.10;99.90
35305;DHT22;26433;48.034;-1.764;2023-12-20T09:43:04;10.20;99.90
35305;DHT22;26433;48.034;-1.764;2023-12-20T09:48:12;10.20;99.90
35305;DHT22;26433;48.034;-1.764;2023-12-20T09:53:18;10.40;99.90
35305;DHT22;26433;48.034;-1.764;2023-12-20T09:58:24;10.40;99.90
35305;DHT22;26433;48.034;-1.764;2023-12-20T10:03:27;10.50;99.90
35305;DHT22;26433;48.034;-1.764;2023-12-20T10:08:31;10.70;99.90
35305;DHT22;26433;48.034;-1.764;2023-12-20T10:13:39;11.00;99.90
35305;DHT22;26433;48.034;-1.764;2023-12-20T10:18:43;11.30;99.90
35305;DHT22;26433;48.034;-1.764;2023-12-20T10:23:49;11.40;99.90
35305;DHT22;26433;48.034;-1.764;2023-12-20T10:28:56;11.50;99.90
35305;DHT22;26433;48.034;-1.764;2023-12-20T10:34:00;11.50;99.90
35305;DHT22;26433;48.034;-1.764;2023-12-20T10:39:05;11.70;99.90
35305;DHT22;26433;48.034;-1.764;2023-12-20T10:44:12;11.90;99.90
35305;DHT22;26433;48.034;-1.764;2023-12-20T10:49:17;12.20;99.90
35305;DHT22;26433;48.034;-1.764;2023-12-20T10:54:21;12.50;99.90
35305;DHT22;26433;48.034;-1.764;2023-12-20T10:59:28;13.00;99.90
35305;DHT22;26433;48.034;-1.764;2023-12-20T11:04:39;13.30;99.90
35305;DHT22;26433;48.034;-1.764;2023-12-20T11:09:49;13.60;99.90
35305;DHT22;26433;48.034;-1.764;2023-12-20T11:15:00;13.80;99.90
35305;DHT22;26433;48.034;-1.764;2023-12-20T11:20:08;14.10;99.90
35305;DHT22;26433;48.034;-1.764;2023-12-20T11:25:14;14.20;99.90
35305;DHT22;26433;48.034;-1.764;2023-12-20T11:30:21;14.30;99.90
35305;DHT22;26433;48.034;-1.764;2023-12-20T11:35:24;14.50;99.90
35305;DHT22;26433;48.034;-1.764;2023-12-20T11:40:28;14.80;99.90
35305;DHT22;26433;48.034;-1.764;2023-12-20T11:45:33;15.00;99.90
35305;DHT22;26433;48.034;-1.764;2023-12-20T11:50:37;15.20;99.90
35305;DHT22;26433;48.034;-1.764;2023-12-20T11:55:41;15.40;99.90
35305;DHT22;26433;48.034;-1.764;2023-12-20T12:00:48;15.70;99.20
35305;DHT22;26433;48.034;-1.764;2023-12-20T12:05:51;16.00;97.90
35305;DHT22;26433;48.034;-1.764;2023-12-20T12:10:55;16.30;96.90
35305;DHT22;26433;48.034;-1.764;2023-12-20T12:16:00;16.50;96.00
35305;DHT22;26433;48.034;-1.764;2023-12-20T12:21:04;16.70;95.30
35305;DHT22;26433;48.034;-1.764;2023-12-20T12:26:16;16.90;94.70
35305;DHT22;26433;48.034;-1.764;2023-12-20T12:31:22;17.10;93.70
35305;DHT22;26433;48.034;-1.764;2023-12-20T12:36:30;17.00;92.90
35305;DHT22;26433;48.034;-1.764;2023-12-20T12:41:33;16.60;93.70
35305;DHT22;26433;48.034;-1.764;2023-12-20T12:46:38;16.00;95.30
35305;DHT22;26433;48.034;-1.764;2023-12-20T12:51:41;15.70;96.90
35305;DHT22;26433;48.034;-1.764;2023-12-20T12:56:46;15.30;97.70
35305;DHT22;26433;48.034;-1.764;2023-12-20T13:01:51;15.20;99.90
35305;DHT22;26433;48.034;-1.764;2023-12-20T13:06:55;15.40;98.20
35305;DHT22;26433;48.034;-1.764;2023-12-20T13:11:59;15.30;97.00
35305;DHT22;26433;48.034;-1.764;2023-12-20T13:17:07;15.20;98.90
35305;DHT22;26433;48.034;-1.764;2023-12-20T13:22:10;15.40;98.10
35305;DHT22;26433;48.034;-1.764;2023-12-20T13:27:14;15.40;96.20
35305;DHT22;26433;48.034;-1.764;2023-12-20T13:32:19;15.30;97.00
35305;DHT22;26433;48.034;-1.764;2023-12-20T13:37:23;15.30;97.80
35305;DHT22;26433;48.034;-1.764;2023-12-20T13:42:26;15.30;96.80
35305;DHT22;26433;48.034;-1.764;2023-12-20T13:47:32;15.00;97.50
35305;DHT22;26433;48.034;-1.764;2023-12-20T13:52:36;14.80;98.20
35305;DHT22;26433;48.034;-1.764;2023-12-20T13:57:41;14.60;98.80
35305;DHT22;26433;48.034;-1.764;2023-12-20T14:02:58;14.50;98.70
35305;DHT22;26433;48.034;-1.764;2023-12-20T14:08:02;14.40;99.90
35305;DHT22;26433;48.034;-1.764;2023-12-20T14:13:05;14.40;99.90
35305;DHT22;26433;48.034;-1.764;2023-12-20T14:18:10;14.70;99.60
35305;DHT22;26433;48.034;-1.764;2023-12-20T14:23:17;15.00;97.80
35305;DHT22;26433;48.034;-1.764;2023-12-20T14:28:20;15.20;96.70
35305;DHT22;26433;48.034;-1.764;2023-12-20T14:33:25;15.20;96.80
35305;DHT22;26433;48.034;-1.764;2023-12-20T14:38:28;15.00;97.00
35305;DHT22;26433;48.034;-1.764;2023-12-20T14:43:32;14.70;97.80
35305;DHT22;26433;48.034;-1.764;2023-12-20T14:48:37;14.60;98.70
35305;DHT22;26433;48.034;-1.764;2023-12-20T14:53:42;14.40;99.00
35305;DHT22;26433;48.034;-1.764;2023-12-20T14:58:46;14.30;99.20
35305;DHT22;26433;48.034;-1.764;2023-12-20T15:03:51;14.10;99.70
35305;DHT22;26433;48.034;-1.764;2023-12-20T15:08:55;14.00;99.90
35305;DHT22;26433;48.034;-1.764;2023-12-20T15:13:59;13.90;99.90
35305;DHT22;26433;48.034;-1.764;2023-12-20T15:19:05;13.80;99.90
35305;DHT22;26433;48.034;-1.764;2023-12-20T15:24:09;13.70;99.90
35305;DHT22;26433;48.034;-1.764;2023-12-20T15:29:17;13.60;99.90
35305;DHT22;26433;48.034;-1.764;2023-12-20T15:34:21;13.60;99.90
35305;DHT22;26433;48.034;-1.764;2023-12-20T15:39:25;13.60;99.90
35305;DHT22;26433;48.034;-1.764;2023-12-20T15:44:28;13.50;99.90
35305;DHT22;26433;48.034;-1.764;2023-12-20T15:49:33;13.40;99.90
35305;DHT22;26433;48.034;-1.764;2023-12-20T15:54:37;13.30;99.90
35305;DHT22;26433;48.034;-1.764;2023-12-20T15:59:41;13.30;99.90
35305;DHT22;26433;48.034;-1.764;2023-12-20T16:04:46;13.20;99.90
35305;DHT22;26433;48.034;-1.764;2023-12-20T16:09:50;13.20;99.90
35305;DHT22;26433;48.034;-1.764;2023-12-20T16:14:54;13.30;99.90
35305;DHT22;26433;48.034;-1.764;2023-12-20T16:19:59;13.20;99.90
35305;DHT22;26433;48.034;-1.764;2023-12-20T16:25:03;13.20;99.90
35305;DHT22;26433;48.034;-1.764;2023-12-20T16:30:07;13.20;99.90
35305;DHT22;26433;48.034;-1.764;2023-12-20T16:35:12;13.20;99.90
35305;DHT22;26433;48.034;-1.764;2023-12-20T16:40:16;13.20;99.90
35305;DHT22;26433;48.034;-1.764;2023-12-20T16:45:21;13.20;99.90
35305;DHT22;26433;48.034;-1.764;2023-12-20T16:50:26;13.20;99.90
35305;DHT22;26433;48.034;-1.764;2023-12-20T16:55:30;13.20;99.90
35305;DHT22;26433;48.034;-1.764;2023-12-20T17:00:33;13.20;99.90
35305;DHT22;26433;48.034;-1.764;2023-12-20T17:05:39;13.10;99.90
35305;DHT22;26433;48.034;-1.764;2023-12-20T17:10:42;13.00;99.90
35305;DHT22;26433;48.034;-1.764;2023-12-20T17:15:46;13.00;99.90
35305;DHT22;26433;48.034;-1.764;2023-12-20T17:20:51;12.90;99.90
35305;DHT22;26433;48.034;-1.764;2023-12-20T17:25:54;13.00;99.90
35305;DHT22;26433;48.034;-1.764;2023-12-20T17:30:58;12.90;99.90
35305;DHT22;26433;48.034;-1.764;2023-12-20T17:36:04;12.80;99.90
35305;DHT22;26433;48.034;-1.764;2023-12-20T17:41:08;12.80;99.90
35305;DHT22;26433;48.034;-1.764;2023-12-20T17:46:13;12.80;99.90
35305;DHT22;26433;48.034;-1.764;2023-12-20T17:51:18;12.70;99.90
35305;DHT22;26433;48.034;-1.764;2023-12-20T17:56:21;12.70;99.90
35305;DHT22;26433;48.034;-1.764;2023-12-20T18:01:25;12.70;99.90
35305;DHT22;26433;48.034;-1.764;2023-12-20T18:06:30;12.70;99.90
35305;DHT22;26433;48.034;-1.764;2023-12-20T18:11:34;12.80;99.90
35305;DHT22;26433;48.034;-1.764;2023-12-20T18:16:37;12.80;99.90
35305;DHT22;26433;48.034;-1.764;2023-12-20T18:21:42;12.80;99.90
35305;DHT22;26433;48.034;-1.764;2023-12-20T18:26:46;12.90;99.90
35305;DHT22;26433;48.034;-1.764;2023-12-20T18:31:49;12.80;99.90
35305;DHT22;26433;48.034;-1.764;2023-12-20T18:36:54;12.70;99.90
35305;DHT22;26433;48.034;-1.764;2023-12-20T18:41:57;12.70;99.90
35305;DHT22;26433;48.034;-1.764;2023-12-20T18:47:01;12.70;99.90
35305;DHT22;26433;48.034;-1.764;2023-12-20T18:52:06;12.70;99.90
35305;DHT22;26433;48.034;-1.764;2023-12-20T18:57:10;12.70;99.90
35305;DHT22;26433;48.034;-1.764;2023-12-20T19:02:13;12.70;99.90
35305;DHT22;26433;48.034;-1.764;2023-12-20T19:07:18;12.70;99.90
35305;DHT22;26433;48.034;-1.764;2023-12-20T19:12:22;12.60;99.90
35305;DHT22;26433;48.034;-1.764;2023-12-20T19:17:25;12.60;99.90
35305;DHT22;26433;48.034;-1.764;2023-12-20T19:22:30;12.50;99.90
35305;DHT22;26433;48.034;-1.764;2023-12-20T19:27:34;12.50;99.90
35305;DHT22;26433;48.034;-1.764;2023-12-20T19:32:38;12.60;99.90
35305;DHT22;26433;48.034;-1.764;2023-12-20T19:37:43;12.50;99.90
35305;DHT22;26433;48.034;-1.764;2023-12-20T19:42:47;12.40;99.90
35305;DHT22;26433;48.034;-1.764;2023-12-20T19:47:51;12.40;99.90
35305;DHT22;26433;48.034;-1.764;2023-12-20T19:52:56;12.50;99.90
35305;DHT22;26433;48.034;-1.764;2023-12-20T19:58:00;12.50;99.90
35305;DHT22;26433;48.034;-1.764;2023-12-20T20:03:04;12.40;99.90
35305;DHT22;26433;48.034;-1.764;2023-12-20T20:08:09;12.50;99.90
35305;DHT22;26433;48.034;-1.764;2023-12-20T20:13:12;12.40;99.90
35305;DHT22;26433;48.034;-1.764;2023-12-20T20:18:17;12.30;99.90
35305;DHT22;26433;48.034;-1.764;2023-12-20T20:23:23;12.30;99.90
35305;DHT22;26433;48.034;-1.764;2023-12-20T20:28:27;12.20;99.90
35305;DHT22;26433;48.034;-1.764;2023-12-20T20:33:31;12.20;99.90
35305;DHT22;26433;48.034;-1.764;2023-12-20T20:38:36;12.10;99.90
35305;DHT22;26433;48.034;-1.764;2023-12-20T20:43:39;12.10;99.90
35305;DHT22;26433;48.034;-1.764;2023-12-20T20:48:43;12.00;99.90
35305;DHT22;26433;48.034;-1.764;2023-12-20T20:53:54;12.00;99.90
35305;DHT22;26433;48.034;-1.764;2023-12-20T20:59:13;12.00;99.90
35305;DHT22;26433;48.034;-1.764;2023-12-20T21:04:16;12.00;99.90
35305;DHT22;26433;48.034;-1.764;2023-12-20T21:09:21;12.00;99.90
35305;DHT22;26433;48.034;-1.764;2023-12-20T21:14:25;12.00;99.90
35305;DHT22;26433;48.034;-1.764;2023-12-20T21:19:28;12.00;99.90
35305;DHT22;26433;48.034;-1.764;2023-12-20T21:24:33;12.00;99.90
35305;DHT22;26433;48.034;-1.764;2023-12-20T21:29:37;12.00;99.90
35305;DHT22;26433;48.034;-1.764;2023-12-20T21:34:40;12.00;99.90
35305;DHT22;26433;48.034;-1.764;2023-12-20T21:39:45;12.10;99.90
35305;DHT22;26433;48.034;-1.764;2023-12-20T21:44:49;12.00;99.90
35305;DHT22;26433;48.034;-1.764;2023-12-20T21:49:52;12.00;99.90
35305;DHT22;26433;48.034;-1.764;2023-12-20T21:54:57;12.00;99.90
35305;DHT22;26433;48.034;-1.764;2023-12-20T22:00:01;12.00;99.90
35305;DHT22;26433;48.034;-1.764;2023-12-20T22:05:07;12.10;99.90
35305;DHT22;26433;48.034;-1.764;2023-12-20T22:10:13;12.00;99.90
35305;DHT22;26433;48.034;-1.764;2023-12-20T22:15:17;12.00;99.90
35305;DHT22;26433;48.034;-1.764;2023-12-20T22:20:21;12.00;99.90
35305;DHT22;26433;48.034;-1.764;2023-12-20T22:25:26;12.00;99.90
35305;DHT22;26433;48.034;-1.764;2023-12-20T22:30:29;12.00;99.90
35305;DHT22;26433;48.034;-1.764;2023-12-20T22:35:33;12.00;99.90
35305;DHT22;26433;48.034;-1.764;2023-12-20T22:40:38;12.00;99.90
35305;DHT22;26433;48.034;-1.764;2023-12-20T22:45:41;12.00;99.90
35305;DHT22;26433;48.034;-1.764;2023-12-20T22:50:45;12.00;99.90
35305;DHT22;26433;48.034;-1.764;2023-12-20T22:55:50;12.10;99.90
35305;DHT22;26433;48.034;-1.764;2023-12-20T23:00:53;12.10;99.90
35305;DHT22;26433;48.034;-1.764;2023-12-20T23:05:57;12.10;99.90
35305;DHT22;26433;48.034;-1.764;2023-12-20T23:11:02;12.10;99.90
35305;DHT22;26433;48.034;-1.764;2023-12-20T23:16:06;12.10;99.90
35305;DHT22;26433;48.034;-1.764;2023-12-20T23:21:13;12.20;99.90
35305;DHT22;26433;48.034;-1.764;2023-12-20T23:26:18;12.20;99.90
35305;DHT22;26433;48.034;-1.764;2023-12-20T23:31:22;12.20;99.90
35305;DHT22;26433;48.034;-1.764;2023-12-20T23:36:26;12.10;99.90
35305;DHT22;26433;48.034;-1.764;2023-12-20T23:41:31;12.10;99.90
35305;DHT22;26433;48.034;-1.764;2023-12-20T23:46:34;12.10;99.90
35305;DHT22;26433;48.034;-1.764;2023-12-20T23:51:38;12.10;99.90
35305;DHT22;26433;48.034;-1.764;2023-12-20T23:56:43;12.10;99.90
